sensor_id;sensor_type;location;lat;lon;timestamp;P1;durP1;ratioP1;P2;durP2;ratioP2
77400;SDS011;66855;45.414;11.082;2023-05-21T00:00:42;16.80;;;12.20;;
77400;SDS011;66855;45.414;11.082;2023-05-21T00:03:09;19.30;;;13.20;;
77400;SDS011;66855;45.414;11.082;2023-05-21T00:05:42;19.50;;;12.70;;
77400;SDS011;66855;45.414;11.082;2023-05-21T00:08:10;16.90;;;13.00;;
77400;SDS011;66855;45.414;11.082;2023-05-21T00:10:37;19.30;;;12.40;;
77400;SDS011;66855;45.414;11.082;2023-05-21T00:13:04;17.80;;;13.00;;
77400;SDS011;66855;45.414;11.082;2023-05-21T00:15:30;17.20;;;12.90;;
77400;SDS011;66855;45.414;11.082;2023-05-21T00:17:57;18.70;;;13.20;;
77400;SDS011;66855;45.414;11.082;2023-05-21T00:20:24;18.90;;;13.20;;
77400;SDS011;66855;45.414;11.082;2023-05-21T00:22:52;15.70;;;12.30;;
77400;SDS011;66855;45.414;11.082;2023-05-21T00:25:19;16.80;;;11.70;;
77400;SDS011;66855;45.414;11.082;2023-05-21T00:27:45;19.60;;;12.50;;
77400;SDS011;66855;45.414;11.082;2023-05-21T00:30:12;20.30;;;12.80;;
77400;SDS011;66855;45.414;11.082;2023-05-21T00:32:39;17.30;;;12.20;;
77400;SDS011;66855;45.414;11.082;2023-05-21T00:35:06;19.20;;;13.50;;
77400;SDS011;66855;45.414;11.082;2023-05-21T00:37:34;20.50;;;13.40;;
77400;SDS011;66855;45.414;11.082;2023-05-21T00:40:02;17.60;;;13.20;;
77400;SDS011;66855;45.414;11.082;2023-05-21T00:42:34;19.20;;;13.10;;
77400;SDS011;66855;45.414;11.082;2023-05-21T00:45:06;17.10;;;12.10;;
77400;SDS011;66855;45.414;11.082;2023-05-21T00:47:33;18.40;;;12.20;;
77400;SDS011;66855;45.414;11.082;2023-05-21T00:50:01;15.40;;;11.60;;
77400;SDS011;66855;45.414;11.082;2023-05-21T00:52:28;16.30;;;11.20;;
77400;SDS011;66855;45.414;11.082;2023-05-21T00:54:55;15.00;;;11.10;;
77400;SDS011;66855;45.414;11.082;2023-05-21T00:57:23;17.50;;;11.80;;
77400;SDS011;66855;45.414;11.082;2023-05-21T00:59:52;15.30;;;12.20;;
77400;SDS011;66855;45.414;11.082;2023-05-21T01:02:19;18.60;;;12.40;;
77400;SDS011;66855;45.414;11.082;2023-05-21T01:04:50;18.90;;;12.20;;
77400;SDS011;66855;45.414;11.082;2023-05-21T01:07:19;17.00;;;12.10;;
77400;SDS011;66855;45.414;11.082;2023-05-21T01:09:46;15.90;;;12.50;;
77400;SDS011;66855;45.414;11.082;2023-05-21T01:12:12;19.60;;;12.50;;
77400;SDS011;66855;45.414;11.082;2023-05-21T01:14:40;17.10;;;12.10;;
77400;SDS011;66855;45.414;11.082;2023-05-21T01:17:07;18.40;;;11.90;;
77400;SDS011;66855;45.414;11.082;2023-05-21T01:19:35;17.00;;;12.10;;
77400;SDS011;66855;45.414;11.082;2023-05-21T01:22:03;16.20;;;12.00;;
77400;SDS011;66855;45.414;11.082;2023-05-21T01:24:31;18.00;;;13.90;;
77400;SDS011;66855;45.414;11.082;2023-05-21T01:27:01;17.90;;;12.70;;
77400;SDS011;66855;45.414;11.082;2023-05-21T01:29:28;18.20;;;14.00;;
77400;SDS011;66855;45.414;11.082;2023-05-21T01:34:47;19.10;;;12.90;;
77400;SDS011;66855;45.414;11.082;2023-05-21T01:43:01;16.50;;;12.50;;
77400;SDS011;66855;45.414;11.082;2023-05-21T01:45:29;16.70;;;13.00;;
77400;SDS011;66855;45.414;11.082;2023-05-21T01:47:56;18.30;;;13.00;;
77400;SDS011;66855;45.414;11.082;2023-05-21T01:50:24;16.90;;;12.90;;
77400;SDS011;66855;45.414;11.082;2023-05-21T01:52:52;19.20;;;12.80;;
77400;SDS011;66855;45.414;11.082;2023-05-21T01:55:22;17.30;;;12.80;;
77400;SDS011;66855;45.414;11.082;2023-05-21T01:57:51;18.80;;;13.20;;
77400;SDS011;66855;45.414;11.082;2023-05-21T02:00:23;16.30;;;13.20;;
77400;SDS011;66855;45.414;11.082;2023-05-21T02:02:52;18.00;;;13.10;;
77400;SDS011;66855;45.414;11.082;2023-05-21T02:05:19;19.00;;;13.40;;
77400;SDS011;66855;45.414;11.082;2023-05-21T02:07:46;17.80;;;13.60;;
77400;SDS011;66855;45.414;11.082;2023-05-21T02:10:13;17.50;;;13.00;;
77400;SDS011;66855;45.414;11.082;2023-05-21T02:12:40;16.90;;;13.00;;
77400;SDS011;66855;45.414;11.082;2023-05-21T02:15:08;17.00;;;12.60;;
77400;SDS011;66855;45.414;11.082;2023-05-21T02:17:35;19.80;;;13.70;;
77400;SDS011;66855;45.414;11.082;2023-05-21T02:20:08;19.60;;;13.10;;
77400;SDS011;66855;45.414;11.082;2023-05-21T02:22:39;20.30;;;13.00;;
77400;SDS011;66855;45.414;11.082;2023-05-21T02:25:07;16.50;;;11.90;;
77400;SDS011;66855;45.414;11.082;2023-05-21T02:27:35;17.10;;;13.40;;
77400;SDS011;66855;45.414;11.082;2023-05-21T02:30:03;15.90;;;12.70;;
77400;SDS011;66855;45.414;11.082;2023-05-21T02:32:31;18.80;;;12.70;;
77400;SDS011;66855;45.414;11.082;2023-05-21T02:34:59;16.00;;;11.80;;
77400;SDS011;66855;45.414;11.082;2023-05-21T02:37:27;17.50;;;12.30;;
77400;SDS011;66855;45.414;11.082;2023-05-21T02:39:54;17.60;;;12.00;;
77400;SDS011;66855;45.414;11.082;2023-05-21T02:42:21;18.30;;;13.00;;
77400;SDS011;66855;45.414;11.082;2023-05-21T02:44:49;19.10;;;12.20;;
77400;SDS011;66855;45.414;11.082;2023-05-21T02:47:17;21.30;;;12.60;;
77400;SDS011;66855;45.414;11.082;2023-05-21T02:49:44;16.10;;;12.40;;
77400;SDS011;66855;45.414;11.082;2023-05-21T02:52:11;17.20;;;12.10;;
77400;SDS011;66855;45.414;11.082;2023-05-21T02:54:38;16.90;;;12.20;;
77400;SDS011;66855;45.414;11.082;2023-05-21T02:57:05;17.70;;;12.50;;
77400;SDS011;66855;45.414;11.082;2023-05-21T02:59:32;18.00;;;11.80;;
77400;SDS011;66855;45.414;11.082;2023-05-21T03:02:01;15.50;;;11.50;;
77400;SDS011;66855;45.414;11.082;2023-05-21T03:04:28;14.60;;;11.10;;
77400;SDS011;66855;45.414;11.082;2023-05-21T03:06:55;16.70;;;12.00;;
77400;SDS011;66855;45.414;11.082;2023-05-21T03:09:22;19.40;;;12.50;;
77400;SDS011;66855;45.414;11.082;2023-05-21T03:11:50;16.60;;;10.90;;
77400;SDS011;66855;45.414;11.082;2023-05-21T03:14:19;13.00;;;10.70;;
77400;SDS011;66855;45.414;11.082;2023-05-21T03:16:46;15.70;;;11.40;;
77400;SDS011;66855;45.414;11.082;2023-05-21T03:19:16;15.70;;;11.50;;
77400;SDS011;66855;45.414;11.082;2023-05-21T03:21:43;16.10;;;11.60;;
77400;SDS011;66855;45.414;11.082;2023-05-21T03:24:10;17.20;;;11.80;;
77400;SDS011;66855;45.414;11.082;2023-05-21T03:26:39;16.60;;;11.10;;
77400;SDS011;66855;45.414;11.082;2023-05-21T03:29:06;15.40;;;11.60;;
77400;SDS011;66855;45.414;11.082;2023-05-21T03:31:33;14.10;;;11.00;;
77400;SDS011;66855;45.414;11.082;2023-05-21T03:34:06;15.30;;;12.20;;
77400;SDS011;66855;45.414;11.082;2023-05-21T03:36:34;15.10;;;11.20;;
77400;SDS011;66855;45.414;11.082;2023-05-21T03:39:01;16.40;;;11.20;;
77400;SDS011;66855;45.414;11.082;2023-05-21T03:41:29;19.50;;;12.10;;
77400;SDS011;66855;45.414;11.082;2023-05-21T03:44:03;17.50;;;11.50;;
77400;SDS011;66855;45.414;11.082;2023-05-21T03:46:37;15.20;;;11.30;;
77400;SDS011;66855;45.414;11.082;2023-05-21T03:49:12;14.10;;;10.90;;
77400;SDS011;66855;45.414;11.082;2023-05-21T03:51:39;14.20;;;10.90;;
77400;SDS011;66855;45.414;11.082;2023-05-21T03:54:06;14.30;;;11.10;;
77400;SDS011;66855;45.414;11.082;2023-05-21T03:56:36;16.00;;;11.10;;
77400;SDS011;66855;45.414;11.082;2023-05-21T03:59:02;16.40;;;11.00;;
77400;SDS011;66855;45.414;11.082;2023-05-21T04:01:30;17.60;;;10.20;;
77400;SDS011;66855;45.414;11.082;2023-05-21T04:03:58;14.50;;;11.10;;
77400;SDS011;66855;45.414;11.082;2023-05-21T04:06:26;15.90;;;11.50;;
77400;SDS011;66855;45.414;11.082;2023-05-21T04:08:53;15.70;;;11.30;;
77400;SDS011;66855;45.414;11.082;2023-05-21T04:11:20;13.90;;;10.30;;
77400;SDS011;66855;45.414;11.082;2023-05-21T04:13:46;14.20;;;9.70;;
77400;SDS011;66855;45.414;11.082;2023-05-21T04:16:13;14.10;;;9.60;;
77400;SDS011;66855;45.414;11.082;2023-05-21T04:18:45;14.90;;;10.10;;
77400;SDS011;66855;45.414;11.082;2023-05-21T04:21:12;13.10;;;9.60;;
77400;SDS011;66855;45.414;11.082;2023-05-21T04:23:39;13.80;;;10.50;;
77400;SDS011;66855;45.414;11.082;2023-05-21T04:26:12;12.90;;;9.90;;
77400;SDS011;66855;45.414;11.082;2023-05-21T04:28:40;10.80;;;8.60;;
77400;SDS011;66855;45.414;11.082;2023-05-21T04:31:07;13.70;;;9.60;;
77400;SDS011;66855;45.414;11.082;2023-05-21T04:33:34;13.60;;;9.40;;
77400;SDS011;66855;45.414;11.082;2023-05-21T04:36:02;13.60;;;9.80;;
77400;SDS011;66855;45.414;11.082;2023-05-21T04:38:29;14.50;;;9.80;;
77400;SDS011;66855;45.414;11.082;2023-05-21T04:40:56;11.60;;;8.90;;
77400;SDS011;66855;45.414;11.082;2023-05-21T04:43:24;12.70;;;9.20;;
77400;SDS011;66855;45.414;11.082;2023-05-21T04:45:51;11.50;;;8.50;;
77400;SDS011;66855;45.414;11.082;2023-05-21T04:48:21;10.90;;;8.10;;
77400;SDS011;66855;45.414;11.082;2023-05-21T04:50:52;13.20;;;9.00;;
77400;SDS011;66855;45.414;11.082;2023-05-21T04:58:15;14.30;;;9.40;;
77400;SDS011;66855;45.414;11.082;2023-05-21T05:00:45;10.60;;;8.70;;
77400;SDS011;66855;45.414;11.082;2023-05-21T05:03:13;11.80;;;7.70;;
77400;SDS011;66855;45.414;11.082;2023-05-21T05:05:41;9.40;;;7.70;;
77400;SDS011;66855;45.414;11.082;2023-05-21T05:08:08;11.50;;;8.40;;
77400;SDS011;66855;45.414;11.082;2023-05-21T05:10:35;11.80;;;8.80;;
77400;SDS011;66855;45.414;11.082;2023-05-21T05:13:02;12.60;;;8.70;;
77400;SDS011;66855;45.414;11.082;2023-05-21T05:15:29;12.20;;;9.20;;
77400;SDS011;66855;45.414;11.082;2023-05-21T05:17:56;12.60;;;8.70;;
77400;SDS011;66855;45.414;11.082;2023-05-21T05:20:22;8.90;;;7.80;;
77400;SDS011;66855;45.414;11.082;2023-05-21T05:22:49;10.00;;;7.90;;
77400;SDS011;66855;45.414;11.082;2023-05-21T05:25:16;11.20;;;8.90;;
77400;SDS011;66855;45.414;11.082;2023-05-21T05:27:44;11.70;;;8.40;;
77400;SDS011;66855;45.414;11.082;2023-05-21T05:30:11;12.00;;;9.00;;
77400;SDS011;66855;45.414;11.082;2023-05-21T05:32:38;11.40;;;9.20;;
77400;SDS011;66855;45.414;11.082;2023-05-21T05:35:05;13.40;;;9.80;;
77400;SDS011;66855;45.414;11.082;2023-05-21T05:37:33;13.70;;;10.10;;
77400;SDS011;66855;45.414;11.082;2023-05-21T05:40:00;14.40;;;10.70;;
77400;SDS011;66855;45.414;11.082;2023-05-21T05:42:27;13.70;;;10.60;;
77400;SDS011;66855;45.414;11.082;2023-05-21T05:44:57;13.20;;;10.00;;
77400;SDS011;66855;45.414;11.082;2023-05-21T05:47:23;17.10;;;10.80;;
77400;SDS011;66855;45.414;11.082;2023-05-21T05:49:51;18.60;;;11.50;;
77400;SDS011;66855;45.414;11.082;2023-05-21T05:52:18;16.10;;;11.90;;
77400;SDS011;66855;45.414;11.082;2023-05-21T05:54:45;13.60;;;9.90;;
77400;SDS011;66855;45.414;11.082;2023-05-21T05:57:12;14.50;;;11.20;;
77400;SDS011;66855;45.414;11.082;2023-05-21T05:59:39;14.70;;;10.80;;
77400;SDS011;66855;45.414;11.082;2023-05-21T06:02:06;17.00;;;11.30;;
77400;SDS011;66855;45.414;11.082;2023-05-21T06:04:33;18.30;;;11.40;;
77400;SDS011;66855;45.414;11.082;2023-05-21T06:07:00;19.10;;;10.40;;
77400;SDS011;66855;45.414;11.082;2023-05-21T06:09:27;13.00;;;10.30;;
77400;SDS011;66855;45.414;11.082;2023-05-21T06:11:53;17.20;;;10.00;;
77400;SDS011;66855;45.414;11.082;2023-05-21T06:14:20;14.40;;;9.80;;
77400;SDS011;66855;45.414;11.082;2023-05-21T06:16:47;16.10;;;10.90;;
77400;SDS011;66855;45.414;11.082;2023-05-21T06:19:14;13.40;;;10.90;;
77400;SDS011;66855;45.414;11.082;2023-05-21T06:21:41;15.00;;;11.10;;
77400;SDS011;66855;45.414;11.082;2023-05-21T06:24:08;15.60;;;11.40;;
77400;SDS011;66855;45.414;11.082;2023-05-21T06:26:35;15.30;;;11.60;;
77400;SDS011;66855;45.414;11.082;2023-05-21T06:29:02;16.40;;;11.60;;
77400;SDS011;66855;45.414;11.082;2023-05-21T06:31:29;14.90;;;11.00;;
77400;SDS011;66855;45.414;11.082;2023-05-21T06:33:59;14.70;;;11.20;;
77400;SDS011;66855;45.414;11.082;2023-05-21T06:36:26;17.30;;;12.00;;
77400;SDS011;66855;45.414;11.082;2023-05-21T06:38:56;16.40;;;12.30;;
77400;SDS011;66855;45.414;11.082;2023-05-21T06:41:23;18.60;;;13.10;;
77400;SDS011;66855;45.414;11.082;2023-05-21T06:43:53;17.70;;;11.80;;
77400;SDS011;66855;45.414;11.082;2023-05-21T06:46:46;13.70;;;10.80;;
77400;SDS011;66855;45.414;11.082;2023-05-21T06:49:17;15.30;;;11.90;;
77400;SDS011;66855;45.414;11.082;2023-05-21T06:51:44;15.10;;;11.90;;
77400;SDS011;66855;45.414;11.082;2023-05-21T06:54:12;12.90;;;11.10;;
77400;SDS011;66855;45.414;11.082;2023-05-21T06:56:39;12.30;;;10.10;;
77400;SDS011;66855;45.414;11.082;2023-05-21T06:59:06;12.90;;;10.50;;
77400;SDS011;66855;45.414;11.082;2023-05-21T07:01:33;14.00;;;10.40;;
77400;SDS011;66855;45.414;11.082;2023-05-21T07:04:00;14.90;;;11.60;;
77400;SDS011;66855;45.414;11.082;2023-05-21T07:06:29;14.30;;;11.90;;
77400;SDS011;66855;45.414;11.082;2023-05-21T07:08:57;13.40;;;10.80;;
77400;SDS011;66855;45.414;11.082;2023-05-21T07:11:24;13.40;;;11.70;;
77400;SDS011;66855;45.414;11.082;2023-05-21T07:13:58;14.80;;;11.60;;
77400;SDS011;66855;45.414;11.082;2023-05-21T07:16:30;12.80;;;11.50;;
77400;SDS011;66855;45.414;11.082;2023-05-21T07:18:57;13.80;;;10.30;;
77400;SDS011;66855;45.414;11.082;2023-05-21T07:21:24;10.90;;;9.50;;
77400;SDS011;66855;45.414;11.082;2023-05-21T07:23:51;10.50;;;9.20;;
77400;SDS011;66855;45.414;11.082;2023-05-21T07:26:18;10.20;;;8.40;;
77400;SDS011;66855;45.414;11.082;2023-05-21T07:28:45;10.50;;;7.90;;
77400;SDS011;66855;45.414;11.082;2023-05-21T07:31:13;8.60;;;6.20;;
77400;SDS011;66855;45.414;11.082;2023-05-21T07:33:45;8.80;;;6.90;;
77400;SDS011;66855;45.414;11.082;2023-05-21T07:36:12;8.10;;;6.40;;
77400;SDS011;66855;45.414;11.082;2023-05-21T07:38:39;7.00;;;6.20;;
77400;SDS011;66855;45.414;11.082;2023-05-21T07:41:06;8.00;;;6.60;;
77400;SDS011;66855;45.414;11.082;2023-05-21T07:43:35;6.70;;;6.10;;
77400;SDS011;66855;45.414;11.082;2023-05-21T07:46:02;7.40;;;6.30;;
77400;SDS011;66855;45.414;11.082;2023-05-21T07:48:29;8.10;;;5.60;;
77400;SDS011;66855;45.414;11.082;2023-05-21T07:50:58;8.20;;;6.90;;
77400;SDS011;66855;45.414;11.082;2023-05-21T07:53:29;7.50;;;6.20;;
77400;SDS011;66855;45.414;11.082;2023-05-21T07:55:59;6.10;;;5.60;;
77400;SDS011;66855;45.414;11.082;2023-05-21T07:58:27;6.80;;;5.90;;
77400;SDS011;66855;45.414;11.082;2023-05-21T08:00:56;8.30;;;5.50;;
77400;SDS011;66855;45.414;11.082;2023-05-21T08:03:25;8.60;;;6.50;;
77400;SDS011;66855;45.414;11.082;2023-05-21T08:05:52;7.00;;;5.50;;
77400;SDS011;66855;45.414;11.082;2023-05-21T08:08:20;6.80;;;5.70;;
77400;SDS011;66855;45.414;11.082;2023-05-21T08:10:51;7.10;;;6.40;;
77400;SDS011;66855;45.414;11.082;2023-05-21T08:13:18;7.20;;;6.50;;
77400;SDS011;66855;45.414;11.082;2023-05-21T08:15:46;7.00;;;6.10;;
77400;SDS011;66855;45.414;11.082;2023-05-21T08:18:18;8.80;;;6.40;;
77400;SDS011;66855;45.414;11.082;2023-05-21T08:20:46;7.00;;;6.30;;
77400;SDS011;66855;45.414;11.082;2023-05-21T08:25:46;6.90;;;6.20;;
77400;SDS011;66855;45.414;11.082;2023-05-21T08:28:13;7.90;;;6.90;;
77400;SDS011;66855;45.414;11.082;2023-05-21T08:30:40;7.50;;;6.50;;
77400;SDS011;66855;45.414;11.082;2023-05-21T08:33:07;7.50;;;5.70;;
77400;SDS011;66855;45.414;11.082;2023-05-21T08:35:34;5.20;;;4.70;;
77400;SDS011;66855;45.414;11.082;2023-05-21T08:38:20;8.40;;;6.00;;
77400;SDS011;66855;45.414;11.082;2023-05-21T08:41:13;9.20;;;7.60;;
77400;SDS011;66855;45.414;11.082;2023-05-21T08:43:42;6.80;;;6.10;;
77400;SDS011;66855;45.414;11.082;2023-05-21T08:46:16;7.10;;;5.60;;
77400;SDS011;66855;45.414;11.082;2023-05-21T08:48:45;6.10;;;5.50;;
77400;SDS011;66855;45.414;11.082;2023-05-21T08:51:13;6.30;;;5.70;;
77400;SDS011;66855;45.414;11.082;2023-05-21T08:53:45;6.30;;;5.60;;
77400;SDS011;66855;45.414;11.082;2023-05-21T08:56:16;7.10;;;6.40;;
77400;SDS011;66855;45.414;11.082;2023-05-21T08:58:55;7.30;;;6.60;;
77400;SDS011;66855;45.414;11.082;2023-05-21T09:01:27;8.40;;;5.80;;
77400;SDS011;66855;45.414;11.082;2023-05-21T09:04:07;8.00;;;5.10;;
77400;SDS011;66855;45.414;11.082;2023-05-21T09:06:47;8.20;;;6.60;;
77400;SDS011;66855;45.414;11.082;2023-05-21T09:09:26;8.30;;;5.80;;
77400;SDS011;66855;45.414;11.082;2023-05-21T09:11:56;6.40;;;5.70;;
77400;SDS011;66855;45.414;11.082;2023-05-21T09:14:50;8.20;;;6.70;;
77400;SDS011;66855;45.414;11.082;2023-05-21T09:17:21;7.10;;;6.40;;
77400;SDS011;66855;45.414;11.082;2023-05-21T09:20:06;6.60;;;5.80;;
77400;SDS011;66855;45.414;11.082;2023-05-21T09:22:46;10.10;;;8.30;;
77400;SDS011;66855;45.414;11.082;2023-05-21T09:25:21;7.60;;;6.70;;
77400;SDS011;66855;45.414;11.082;2023-05-21T09:27:57;7.80;;;6.90;;
77400;SDS011;66855;45.414;11.082;2023-05-21T09:30:25;9.00;;;6.90;;
77400;SDS011;66855;45.414;11.082;2023-05-21T09:32:57;7.50;;;6.50;;
77400;SDS011;66855;45.414;11.082;2023-05-21T09:35:25;9.00;;;6.30;;
77400;SDS011;66855;45.414;11.082;2023-05-21T09:37:52;11.20;;;9.20;;
77400;SDS011;66855;45.414;11.082;2023-05-21T09:40:20;25.80;;;22.80;;
77400;SDS011;66855;45.414;11.082;2023-05-21T09:42:50;7.30;;;6.00;;
77400;SDS011;66855;45.414;11.082;2023-05-21T09:45:25;7.40;;;6.20;;
77400;SDS011;66855;45.414;11.082;2023-05-21T09:50:30;5.70;;;5.10;;
77400;SDS011;66855;45.414;11.082;2023-05-21T09:53:10;5.90;;;4.80;;
77400;SDS011;66855;45.414;11.082;2023-05-21T09:55:39;8.80;;;7.10;;
77400;SDS011;66855;45.414;11.082;2023-05-21T09:58:10;8.40;;;6.40;;
77400;SDS011;66855;45.414;11.082;2023-05-21T10:00:38;6.70;;;6.00;;
77400;SDS011;66855;45.414;11.082;2023-05-21T10:03:12;10.40;;;9.40;;
77400;SDS011;66855;45.414;11.082;2023-05-21T10:05:42;10.30;;;7.90;;
77400;SDS011;66855;45.414;11.082;2023-05-21T10:08:11;8.90;;;7.90;;
77400;SDS011;66855;45.414;11.082;2023-05-21T10:10:40;9.70;;;7.50;;
77400;SDS011;66855;45.414;11.082;2023-05-21T10:13:09;12.70;;;10.50;;
77400;SDS011;66855;45.414;11.082;2023-05-21T10:15:47;7.10;;;5.70;;
77400;SDS011;66855;45.414;11.082;2023-05-21T10:18:19;8.00;;;6.20;;
77400;SDS011;66855;45.414;11.082;2023-05-21T10:20:49;6.60;;;5.90;;
77400;SDS011;66855;45.414;11.082;2023-05-21T10:23:17;7.70;;;6.40;;
77400;SDS011;66855;45.414;11.082;2023-05-21T10:25:44;6.90;;;5.90;;
77400;SDS011;66855;45.414;11.082;2023-05-21T10:28:12;7.50;;;6.20;;
77400;SDS011;66855;45.414;11.082;2023-05-21T10:30:43;10.30;;;7.10;;
77400;SDS011;66855;45.414;11.082;2023-05-21T10:33:10;9.60;;;5.50;;
77400;SDS011;66855;45.414;11.082;2023-05-21T10:35:41;6.30;;;5.40;;
77400;SDS011;66855;45.414;11.082;2023-05-21T10:38:10;7.70;;;4.80;;
77400;SDS011;66855;45.414;11.082;2023-05-21T10:40:39;5.80;;;5.30;;
77400;SDS011;66855;45.414;11.082;2023-05-21T10:51:09;7.10;;;5.30;;
77400;SDS011;66855;45.414;11.082;2023-05-21T10:56:28;6.50;;;5.30;;
77400;SDS011;66855;45.414;11.082;2023-05-21T11:01:54;5.90;;;4.90;;
77400;SDS011;66855;45.414;11.082;2023-05-21T11:04:25;7.30;;;5.10;;
77400;SDS011;66855;45.414;11.082;2023-05-21T11:06:53;7.80;;;5.20;;
77400;SDS011;66855;45.414;11.082;2023-05-21T11:09:22;5.60;;;5.00;;
77400;SDS011;66855;45.414;11.082;2023-05-21T11:11:49;7.10;;;5.60;;
77400;SDS011;66855;45.414;11.082;2023-05-21T11:14:37;5.60;;;4.90;;
77400;SDS011;66855;45.414;11.082;2023-05-21T11:17:09;6.50;;;5.20;;
77400;SDS011;66855;45.414;11.082;2023-05-21T11:19:42;7.80;;;5.70;;
77400;SDS011;66855;45.414;11.082;2023-05-21T11:24:54;8.20;;;5.70;;
77400;SDS011;66855;45.414;11.082;2023-05-21T11:27:40;6.30;;;4.20;;
77400;SDS011;66855;45.414;11.082;2023-05-21T11:30:08;7.50;;;5.50;;
77400;SDS011;66855;45.414;11.082;2023-05-21T11:38:16;7.10;;;5.40;;
77400;SDS011;66855;45.414;11.082;2023-05-21T11:40:50;8.30;;;5.90;;
77400;SDS011;66855;45.414;11.082;2023-05-21T11:43:20;7.00;;;5.80;;
77400;SDS011;66855;45.414;11.082;2023-05-21T11:45:47;7.50;;;5.90;;
77400;SDS011;66855;45.414;11.082;2023-05-21T11:48:18;6.30;;;5.70;;
77400;SDS011;66855;45.414;11.082;2023-05-21T11:50:47;7.20;;;6.20;;
77400;SDS011;66855;45.414;11.082;2023-05-21T11:53:14;7.50;;;6.10;;
77400;SDS011;66855;45.414;11.082;2023-05-21T11:55:41;8.80;;;6.40;;
77400;SDS011;66855;45.414;11.082;2023-05-21T11:58:19;6.60;;;5.60;;
77400;SDS011;66855;45.414;11.082;2023-05-21T12:01:00;8.10;;;6.20;;
77400;SDS011;66855;45.414;11.082;2023-05-21T12:03:27;6.10;;;5.50;;
77400;SDS011;66855;45.414;11.082;2023-05-21T12:06:03;8.20;;;5.60;;
77400;SDS011;66855;45.414;11.082;2023-05-21T12:08:30;6.30;;;5.50;;
77400;SDS011;66855;45.414;11.082;2023-05-21T12:10:57;8.50;;;5.70;;
77400;SDS011;66855;45.414;11.082;2023-05-21T12:13:29;7.10;;;5.40;;
77400;SDS011;66855;45.414;11.082;2023-05-21T12:15:57;7.20;;;5.40;;
77400;SDS011;66855;45.414;11.082;2023-05-21T12:18:32;6.70;;;5.70;;
77400;SDS011;66855;45.414;11.082;2023-05-21T12:21:02;6.70;;;5.50;;
77400;SDS011;66855;45.414;11.082;2023-05-21T12:23:30;7.90;;;5.40;;
77400;SDS011;66855;45.414;11.082;2023-05-21T12:25:57;7.80;;;6.90;;
77400;SDS011;66855;45.414;11.082;2023-05-21T12:28:24;6.20;;;5.60;;
77400;SDS011;66855;45.414;11.082;2023-05-21T12:30:51;7.50;;;5.40;;
77400;SDS011;66855;45.414;11.082;2023-05-21T12:33:19;5.60;;;5.00;;
77400;SDS011;66855;45.414;11.082;2023-05-21T12:35:48;6.90;;;5.50;;
77400;SDS011;66855;45.414;11.082;2023-05-21T12:38:16;6.30;;;5.50;;
77400;SDS011;66855;45.414;11.082;2023-05-21T12:40:42;5.80;;;5.30;;
77400;SDS011;66855;45.414;11.082;2023-05-21T12:43:11;4.80;;;4.30;;
77400;SDS011;66855;45.414;11.082;2023-05-21T12:45:40;10.30;;;5.60;;
77400;SDS011;66855;45.414;11.082;2023-05-21T12:48:11;5.60;;;4.90;;
77400;SDS011;66855;45.414;11.082;2023-05-21T12:50:38;6.30;;;5.70;;
77400;SDS011;66855;45.414;11.082;2023-05-21T12:53:07;7.10;;;5.80;;
77400;SDS011;66855;45.414;11.082;2023-05-21T12:55:35;6.20;;;5.60;;
77400;SDS011;66855;45.414;11.082;2023-05-21T12:58:02;6.80;;;6.10;;
77400;SDS011;66855;45.414;11.082;2023-05-21T13:00:34;7.10;;;5.70;;
77400;SDS011;66855;45.414;11.082;2023-05-21T13:03:05;7.20;;;5.80;;
77400;SDS011;66855;45.414;11.082;2023-05-21T13:05:32;7.10;;;5.50;;
77400;SDS011;66855;45.414;11.082;2023-05-21T13:08:00;5.70;;;5.10;;
77400;SDS011;66855;45.414;11.082;2023-05-21T13:10:31;6.10;;;5.10;;
77400;SDS011;66855;45.414;11.082;2023-05-21T13:13:00;6.70;;;6.00;;
77400;SDS011;66855;45.414;11.082;2023-05-21T13:15:27;7.20;;;5.90;;
77400;SDS011;66855;45.414;11.082;2023-05-21T13:17:56;6.70;;;6.00;;
77400;SDS011;66855;45.414;11.082;2023-05-21T13:20:23;7.10;;;5.60;;
77400;SDS011;66855;45.414;11.082;2023-05-21T13:22:53;7.10;;;5.10;;
77400;SDS011;66855;45.414;11.082;2023-05-21T13:25:21;6.10;;;5.50;;
77400;SDS011;66855;45.414;11.082;2023-05-21T13:27:51;5.20;;;4.60;;
77400;SDS011;66855;45.414;11.082;2023-05-21T13:30:19;6.20;;;5.40;;
77400;SDS011;66855;45.414;11.082;2023-05-21T13:32:50;6.00;;;5.30;;
77400;SDS011;66855;45.414;11.082;2023-05-21T13:35:21;5.90;;;5.10;;
77400;SDS011;66855;45.414;11.082;2023-05-21T13:37:49;6.80;;;5.10;;
77400;SDS011;66855;45.414;11.082;2023-05-21T13:40:17;7.00;;;4.90;;
77400;SDS011;66855;45.414;11.082;2023-05-21T13:45:26;5.30;;;4.60;;
77400;SDS011;66855;45.414;11.082;2023-05-21T13:47:55;5.10;;;4.50;;
77400;SDS011;66855;45.414;11.082;2023-05-21T13:52:50;7.20;;;4.90;;
77400;SDS011;66855;45.414;11.082;2023-05-21T13:55:18;6.60;;;4.70;;
77400;SDS011;66855;45.414;11.082;2023-05-21T13:57:47;7.10;;;5.10;;
77400;SDS011;66855;45.414;11.082;2023-05-21T14:00:14;5.30;;;4.30;;
77400;SDS011;66855;45.414;11.082;2023-05-21T14:02:41;4.50;;;4.10;;
77400;SDS011;66855;45.414;11.082;2023-05-21T14:05:25;4.90;;;4.40;;
77400;SDS011;66855;45.414;11.082;2023-05-21T14:07:52;7.00;;;4.40;;
77400;SDS011;66855;45.414;11.082;2023-05-21T14:10:20;6.60;;;4.80;;
77400;SDS011;66855;45.414;11.082;2023-05-21T14:12:48;9.20;;;5.00;;
77400;SDS011;66855;45.414;11.082;2023-05-21T14:15:14;5.60;;;4.70;;
77400;SDS011;66855;45.414;11.082;2023-05-21T14:17:42;6.90;;;5.10;;
77400;SDS011;66855;45.414;11.082;2023-05-21T14:20:09;5.40;;;4.00;;
77400;SDS011;66855;45.414;11.082;2023-05-21T14:22:40;4.00;;;3.60;;
77400;SDS011;66855;45.414;11.082;2023-05-21T14:25:09;5.10;;;3.70;;
77400;SDS011;66855;45.414;11.082;2023-05-21T14:27:37;5.10;;;3.70;;
77400;SDS011;66855;45.414;11.082;2023-05-21T14:30:14;4.80;;;4.30;;
77400;SDS011;66855;45.414;11.082;2023-05-21T14:32:44;5.30;;;4.10;;
77400;SDS011;66855;45.414;11.082;2023-05-21T14:35:13;6.70;;;3.80;;
77400;SDS011;66855;45.414;11.082;2023-05-21T14:37:43;5.10;;;4.20;;
77400;SDS011;66855;45.414;11.082;2023-05-21T14:40:12;5.80;;;3.80;;
77400;SDS011;66855;45.414;11.082;2023-05-21T14:42:54;5.90;;;3.60;;
77400;SDS011;66855;45.414;11.082;2023-05-21T14:45:23;4.60;;;3.60;;
77400;SDS011;66855;45.414;11.082;2023-05-21T14:47:58;7.10;;;4.30;;
77400;SDS011;66855;45.414;11.082;2023-05-21T14:50:27;5.50;;;4.50;;
77400;SDS011;66855;45.414;11.082;2023-05-21T14:52:56;4.80;;;4.10;;
77400;SDS011;66855;45.414;11.082;2023-05-21T14:55:23;6.50;;;3.90;;
77400;SDS011;66855;45.414;11.082;2023-05-21T14:58:03;6.40;;;4.10;;
77400;SDS011;66855;45.414;11.082;2023-05-21T15:00:32;4.80;;;3.90;;
77400;SDS011;66855;45.414;11.082;2023-05-21T15:03:10;4.40;;;4.00;;
77400;SDS011;66855;45.414;11.082;2023-05-21T15:05:39;5.00;;;4.40;;
77400;SDS011;66855;45.414;11.082;2023-05-21T15:08:08;4.80;;;4.20;;
77400;SDS011;66855;45.414;11.082;2023-05-21T15:10:35;5.60;;;4.20;;
77400;SDS011;66855;45.414;11.082;2023-05-21T15:13:04;5.70;;;4.10;;
77400;SDS011;66855;45.414;11.082;2023-05-21T15:15:33;4.60;;;4.10;;
77400;SDS011;66855;45.414;11.082;2023-05-21T15:18:01;5.80;;;4.40;;
77400;SDS011;66855;45.414;11.082;2023-05-21T15:20:31;6.70;;;3.90;;